createdAt,value
2018-12-13T00:00:30.349Z,15.37
2018-12-13T00:03:05.600Z,14.77
2018-12-13T00:05:39.725Z,15.13
2018-12-13T00:08:14.477Z,16.13
2018-12-13T00:10:48.053Z,15.47
2018-12-13T00:13:21.046Z,15.50
2018-12-13T00:15:54.663Z,16.10
2018-12-13T00:18:32.295Z,15.37
2018-12-13T00:21:05.227Z,16.10
2018-12-13T00:23:38.075Z,15.87
2018-12-13T00:26:13.901Z,15.70
2018-12-13T00:28:48.756Z,17.23
2018-12-13T00:31:24.202Z,17.33
2018-12-13T00:34:03.811Z,15.90
2018-12-13T00:36:39.788Z,18.98
2018-12-13T00:39:23.641Z,16.77
2018-12-13T00:41:58.949Z,17.33
2018-12-13T00:44:32.808Z,18.75
2018-12-13T00:47:08.708Z,19.30
2018-12-13T00:49:47.457Z,18.00
2018-12-13T00:52:20.484Z,19.12
2018-12-13T00:54:56.760Z,18.50
2018-12-13T00:57:30.916Z,17.97
2018-12-13T01:00:06.262Z,16.50
2018-12-13T01:02:39.484Z,17.83
2018-12-13T01:05:15.408Z,17.13
2018-12-13T01:07:49.451Z,19.70
2018-12-13T01:10:23.440Z,18.67
2018-12-13T01:12:57.756Z,18.37
2018-12-13T01:15:34.265Z,19.20
2018-12-13T01:18:09.017Z,18.63
2018-12-13T01:20:43.377Z,18.93
2018-12-13T01:23:18.286Z,18.27
2018-12-13T01:25:53.746Z,18.13
2018-12-13T01:28:28.618Z,19.87
2018-12-13T01:31:02.658Z,19.77
2018-12-13T01:33:45.305Z,21.70
2018-12-13T01:36:20.103Z,20.50
2018-12-13T01:38:54.682Z,22.95
2018-12-13T01:41:28.762Z,21.53
2018-12-13T01:44:02.937Z,20.93
2018-12-13T01:46:36.727Z,20.63
2018-12-13T01:49:13.780Z,21.37
2018-12-13T01:51:47.547Z,21.50
2018-12-13T01:54:20.445Z,22.50
2018-12-13T01:56:57.620Z,24.07
2018-12-13T01:59:34.039Z,22.77
2018-12-13T02:02:07.718Z,22.87
2018-12-13T02:04:46.381Z,22.00
2018-12-13T02:07:20.788Z,23.93
2018-12-13T02:09:58.444Z,23.20
2018-12-13T02:12:34.104Z,25.90
2018-12-13T02:15:25.590Z,24.43
2018-12-13T02:17:59.807Z,24.37
2018-12-13T02:20:38.855Z,23.90
2018-12-13T02:23:14.533Z,24.25
2018-12-13T02:25:50.073Z,24.47
2018-12-13T02:28:26.066Z,23.97
2018-12-13T02:31:03.340Z,23.77
2018-12-13T02:33:38.164Z,21.80
2018-12-13T02:36:14.384Z,20.57
2018-12-13T02:38:47.791Z,21.50
2018-12-13T02:41:22.521Z,20.83
2018-12-13T02:43:57.327Z,20.93
2018-12-13T02:46:32.520Z,20.33
2018-12-13T02:49:10.644Z,23.12
2018-12-13T02:51:47.238Z,20.83
2018-12-13T02:54:20.631Z,22.55
2018-12-13T02:56:54.890Z,19.97
2018-12-13T02:59:27.865Z,21.50
2018-12-13T03:02:00.956Z,20.93
2018-12-13T03:04:34.200Z,21.33
2018-12-13T03:07:13.716Z,20.53
2018-12-13T03:09:48.009Z,22.95
2018-12-13T03:12:24.435Z,22.80
2018-12-13T03:15:04.432Z,22.80
2018-12-13T03:17:38.574Z,22.07
2018-12-13T03:20:15.370Z,23.53
2018-12-13T03:22:50.382Z,23.47
2018-12-13T03:25:25.274Z,24.40
2018-12-13T03:27:59.631Z,25.00
2018-12-13T03:30:34.338Z,24.17
2018-12-13T03:33:09.158Z,25.77
2018-12-13T03:35:43.608Z,25.17
2018-12-13T03:38:17.451Z,24.50
2018-12-13T03:40:51.308Z,24.77
2018-12-13T03:43:25.618Z,25.57
2018-12-13T03:45:58.714Z,24.87
2018-12-13T03:48:31.867Z,28.20
2018-12-13T03:51:05.218Z,26.07
2018-12-13T03:53:38.151Z,25.33
2018-12-13T03:56:11.021Z,25.50
2018-12-13T03:58:44.525Z,25.70
2018-12-13T04:01:17.365Z,26.67
2018-12-13T04:03:50.619Z,25.53
2018-12-13T04:06:23.969Z,26.83
2018-12-13T04:08:56.865Z,24.83
2018-12-13T04:11:30.036Z,26.03
2018-12-13T04:14:03.536Z,25.37
2018-12-13T04:16:36.536Z,25.30
2018-12-13T04:19:09.426Z,25.97
2018-12-13T04:21:42.898Z,26.53
2018-12-13T04:24:16.167Z,26.17
2018-12-13T04:26:50.035Z,27.03
2018-12-13T04:29:23.600Z,26.80
2018-12-13T04:31:56.908Z,26.13
2018-12-13T04:34:29.914Z,24.47
2018-12-13T04:37:03.462Z,26.70
2018-12-13T04:39:36.645Z,24.43
2018-12-13T04:42:09.603Z,23.00
2018-12-13T04:44:43.148Z,21.53
2018-12-13T04:47:16.145Z,18.93
2018-12-13T04:49:49.651Z,16.00
2018-12-13T04:52:23.173Z,14.97
2018-12-13T04:54:56.444Z,14.10
2018-12-13T04:57:29.294Z,13.67
2018-12-13T05:00:06.139Z,14.50
2018-12-13T05:02:39.917Z,15.27
2018-12-13T05:05:13.068Z,15.67
2018-12-13T05:07:46.803Z,15.90
2018-12-13T05:10:42.192Z,16.37
2018-12-13T05:13:15.635Z,19.03
2018-12-13T05:15:48.844Z,16.83
2018-12-13T05:18:21.771Z,16.17
2018-12-13T05:21:06.713Z,18.43
2018-12-13T05:23:39.773Z,15.20
2018-12-13T05:26:12.934Z,17.60
2018-12-13T05:28:45.907Z,16.83
2018-12-13T05:31:20.490Z,15.97
2018-12-13T05:33:53.713Z,16.33
2018-12-13T05:36:26.684Z,17.97
2018-12-13T05:39:00.573Z,18.13
2018-12-13T05:41:33.964Z,18.33
2018-12-13T05:44:07.304Z,20.00
2018-12-13T05:46:41.924Z,20.77
2018-12-13T05:49:14.856Z,20.67
2018-12-13T05:51:47.862Z,20.20
2018-12-13T05:54:21.172Z,23.17
2018-12-13T05:56:54.225Z,22.37
2018-12-13T05:59:27.171Z,23.23
2018-12-13T06:02:00.248Z,23.77
2018-12-13T06:04:33.172Z,22.40
2018-12-13T06:07:06.195Z,28.67
2018-12-13T06:09:41.777Z,25.53
2018-12-13T06:12:16.416Z,28.20
2018-12-13T06:14:51.005Z,23.50
2018-12-13T06:17:24.881Z,25.47
2018-12-13T06:19:58.418Z,25.10
2018-12-13T06:22:31.777Z,26.37
2018-12-13T06:25:05.883Z,25.27
2018-12-13T06:27:40.885Z,25.73
2018-12-13T06:30:15.389Z,25.27
2018-12-13T06:32:49.091Z,28.00
2018-12-13T06:35:22.163Z,26.53
2018-12-13T06:38:01.087Z,27.07
2018-12-13T06:40:34.677Z,28.77
2018-12-13T06:43:07.961Z,25.67
2018-12-13T06:45:40.854Z,26.80
2018-12-13T06:48:13.828Z,25.60
2018-12-13T06:50:48.389Z,27.23
2018-12-13T06:53:25.311Z,26.30
2018-12-13T06:55:59.337Z,24.13
2018-12-13T06:58:32.564Z,24.20
2018-12-13T07:01:05.795Z,24.47
2018-12-13T07:03:40.651Z,23.87
2018-12-13T07:06:15.562Z,24.40
2018-12-13T07:08:50.105Z,24.50
2018-12-13T07:11:22.981Z,23.00
2018-12-13T07:13:56.942Z,22.50
2018-12-13T07:16:30.381Z,22.47
2018-12-13T07:19:06.585Z,21.17
2018-12-13T07:21:39.696Z,21.10
2018-12-13T07:24:13.952Z,21.60
2018-12-13T07:26:48.388Z,20.57
2018-12-13T07:29:22.244Z,18.73
2018-12-13T07:31:55.713Z,18.73
2018-12-13T07:34:28.723Z,17.15
2018-12-13T07:37:02.326Z,15.30
2018-12-13T07:39:37.506Z,15.80
2018-12-13T07:42:10.516Z,15.03
2018-12-13T07:44:44.156Z,15.52
2018-12-13T07:47:19.302Z,14.17
2018-12-13T07:49:52.899Z,14.85
2018-12-13T07:52:30.473Z,14.43
2018-12-13T07:55:03.892Z,12.90
2018-12-13T07:57:37.152Z,13.50
2018-12-13T08:00:11.008Z,12.97
2018-12-13T08:02:47.045Z,12.90
2018-12-13T08:05:21.262Z,12.87
2018-12-13T08:07:58.583Z,13.73
2018-12-13T08:10:32.384Z,13.20
2018-12-13T08:13:05.688Z,14.38
2018-12-13T08:15:40.380Z,12.43
2018-12-13T08:18:13.454Z,12.73
2018-12-13T08:20:46.778Z,12.77
2018-12-13T08:23:20.915Z,11.57
2018-12-13T08:25:54.708Z,11.50
2018-12-13T08:28:29.620Z,11.57
2018-12-13T08:31:04.963Z,11.80
2018-12-13T08:33:38.516Z,11.23
2018-12-13T08:36:11.938Z,11.17
2018-12-13T08:38:45.315Z,10.80
2018-12-13T08:41:19.407Z,10.23
2018-12-13T08:43:52.888Z,10.83
2018-12-13T08:46:26.568Z,11.13
2018-12-13T08:48:59.737Z,11.12
2018-12-13T08:51:33.348Z,11.80
2018-12-13T08:54:06.622Z,10.57
2018-12-13T08:56:39.745Z,11.43
2018-12-13T08:59:13.388Z,11.25
2018-12-13T09:01:46.445Z,10.70
2018-12-13T09:04:19.143Z,10.90
2018-12-13T09:06:57.670Z,11.10
2018-12-13T09:09:32.475Z,10.17
2018-12-13T09:12:06.461Z,9.80
2018-12-13T09:14:44.505Z,10.93
2018-12-13T09:17:20.010Z,10.57
2018-12-13T09:19:55.026Z,13.30
2018-12-13T09:22:29.451Z,10.73
2018-12-13T09:25:05.341Z,10.40
2018-12-13T09:27:39.087Z,14.90
2018-12-13T09:30:13.119Z,10.20
2018-12-13T09:32:46.117Z,10.13
2018-12-13T09:35:18.745Z,9.77
2018-12-13T09:37:53.138Z,10.00
2018-12-13T09:40:26.977Z,10.07
2018-12-13T09:42:59.725Z,9.73
2018-12-13T09:45:32.486Z,10.27
2018-12-13T09:48:06.478Z,11.90
2018-12-13T09:50:41.473Z,9.70
2018-12-13T09:53:16.420Z,10.13
2018-12-13T09:55:49.277Z,10.23
2018-12-13T09:58:23.560Z,9.43
2018-12-13T10:00:57.144Z,9.30
2018-12-13T10:03:40.756Z,8.73
2018-12-13T10:06:14.211Z,8.57
2018-12-13T10:08:46.911Z,9.43
2018-12-13T10:11:21.720Z,9.07
2018-12-13T10:13:55.640Z,9.77
2018-12-13T10:16:28.445Z,9.43
2018-12-13T10:19:02.111Z,8.80
2018-12-13T10:21:34.792Z,8.40
2018-12-13T10:24:08.029Z,9.10
2018-12-13T10:26:41.412Z,8.43
2018-12-13T10:29:15.629Z,8.80
2018-12-13T10:31:50.048Z,8.43
2018-12-13T10:34:25.697Z,8.40
2018-12-13T10:37:01.886Z,8.87
2018-12-13T10:39:35.408Z,8.40
2018-12-13T10:42:08.746Z,8.50
2018-12-13T10:44:42.273Z,8.40
2018-12-13T10:47:15.008Z,7.60
2018-12-13T10:49:48.980Z,7.83
2018-12-13T10:52:21.777Z,7.50
2018-12-13T10:54:54.834Z,7.83
2018-12-13T10:57:27.649Z,7.70
2018-12-13T11:00:03.454Z,7.73
2018-12-13T11:03:34.675Z,8.00
2018-12-13T11:06:09.814Z,8.18
2018-12-13T11:08:46.703Z,7.80
2018-12-13T11:11:22.121Z,7.90
2018-12-13T11:13:55.792Z,7.03
2018-12-13T11:16:33.214Z,7.10
2018-12-13T11:19:07.398Z,7.53
2018-12-13T11:21:40.232Z,7.43
2018-12-13T11:24:13.963Z,7.47
2018-12-13T11:26:48.084Z,7.73
2018-12-13T11:29:55.431Z,7.60
2018-12-13T11:32:28.162Z,6.10
2018-12-13T11:35:05.208Z,6.57
2018-12-13T11:37:39.679Z,5.90
2018-12-13T11:40:13.096Z,5.83
2018-12-13T11:42:50.816Z,5.90
2018-12-13T11:45:25.536Z,5.50
2018-12-13T11:47:59.374Z,5.90
2018-12-13T11:50:33.064Z,5.25
2018-12-13T11:53:06.376Z,5.10
2018-12-13T11:55:40.519Z,4.90
2018-12-13T11:58:17.481Z,5.70
2018-12-13T12:00:50.124Z,5.00
2018-12-13T12:03:23.026Z,5.33
2018-12-13T12:05:57.437Z,5.23
2018-12-13T12:08:30.660Z,5.23
2018-12-13T12:11:03.349Z,5.40
2018-12-13T12:13:39.488Z,5.60
2018-12-13T12:16:11.974Z,5.50
2018-12-13T12:18:44.600Z,5.43
2018-12-13T12:21:20.738Z,5.23
2018-12-13T12:23:53.323Z,5.10
2018-12-13T12:26:27.202Z,5.70
2018-12-13T12:29:00.673Z,5.50
2018-12-13T12:31:33.940Z,5.23
2018-12-13T12:34:10.705Z,4.93
2018-12-13T12:36:46.348Z,5.03
2018-12-13T12:39:21.077Z,4.53
2018-12-13T12:41:53.831Z,4.60
2018-12-13T12:44:33.536Z,4.47
2018-12-13T12:47:07.486Z,4.93
2018-12-13T12:49:40.648Z,4.93
2018-12-13T12:52:15.248Z,4.63
2018-12-13T12:54:50.051Z,4.97
2018-12-13T12:57:29.231Z,5.90
2018-12-13T13:00:07.049Z,5.10
2018-12-13T13:02:40.992Z,4.93
2018-12-13T13:05:18.726Z,4.73
2018-12-13T13:07:53.095Z,5.03
2018-12-13T13:10:25.871Z,4.40
2018-12-13T13:12:58.657Z,5.10
2018-12-13T13:15:32.810Z,5.00
2018-12-13T13:18:06.459Z,4.70
2018-12-13T13:20:41.023Z,4.90
2018-12-13T13:23:16.659Z,4.40
2018-12-13T13:25:50.201Z,4.70
2018-12-13T13:28:22.938Z,5.33
2018-12-13T13:30:56.173Z,4.47
2018-12-13T13:33:30.463Z,7.77
2018-12-13T13:36:03.251Z,9.50
2018-12-13T13:38:37.969Z,9.53
2018-12-13T13:41:14.384Z,10.30
2018-12-13T13:43:47.561Z,9.60
2018-12-13T13:46:25.349Z,9.80
2018-12-13T13:48:58.266Z,10.10
2018-12-13T13:51:32.005Z,11.37
2018-12-13T13:54:05.871Z,10.73
2018-12-13T13:56:39.268Z,10.47
2018-12-13T13:59:15.461Z,10.97
2018-12-13T14:01:49.179Z,9.87
2018-12-13T14:04:23.614Z,10.27
2018-12-13T14:06:57.842Z,9.88
2018-12-13T14:09:30.688Z,9.43
2018-12-13T14:12:05.619Z,10.20
2018-12-13T14:14:40.323Z,9.87
2018-12-13T14:17:15.660Z,9.97
2018-12-13T14:19:49.727Z,9.33
2018-12-13T14:22:24.615Z,9.60
2018-12-13T14:24:57.410Z,9.80
2018-12-13T14:27:33.550Z,9.80
2018-12-13T14:30:09.335Z,10.38
2018-12-13T14:32:42.553Z,9.03
2018-12-13T14:35:17.724Z,8.87
2018-12-13T14:37:50.320Z,9.63
2018-12-13T14:40:23.058Z,9.10
2018-12-13T14:42:58.590Z,9.23
2018-12-13T14:45:32.634Z,9.37
2018-12-13T14:48:09.101Z,9.53
2018-12-13T14:50:43.302Z,9.57
2018-12-13T14:53:18.818Z,9.60
2018-12-13T14:55:52.837Z,9.63
2018-12-13T14:58:26.070Z,9.40
2018-12-13T15:00:59.453Z,9.60
2018-12-13T15:03:33.919Z,9.83
2018-12-13T15:06:07.351Z,8.87
2018-12-13T15:08:40.864Z,8.73
2018-12-13T15:11:14.681Z,9.43
2018-12-13T15:13:48.844Z,9.37
2018-12-13T15:16:23.620Z,9.47
2018-12-13T15:18:57.836Z,9.37
2018-12-13T15:21:32.240Z,9.63
2018-12-13T15:24:05.700Z,9.63
2018-12-13T15:26:41.662Z,9.60
2018-12-13T15:29:15.964Z,10.13
2018-12-13T15:31:49.865Z,9.50
2018-12-13T15:34:23.644Z,10.57
2018-12-13T15:36:56.846Z,9.57
2018-12-13T15:39:29.605Z,9.73
2018-12-13T15:42:10.096Z,9.60
2018-12-13T15:44:46.494Z,10.83
2018-12-13T15:47:19.951Z,11.00
2018-12-13T15:49:58.382Z,10.57
2018-12-13T15:52:36.078Z,10.40
2018-12-13T15:55:09.197Z,10.37
2018-12-13T15:57:43.467Z,10.37
2018-12-13T16:00:20.864Z,11.00
2018-12-13T16:02:55.926Z,10.77
2018-12-13T16:05:30.516Z,10.27
2018-12-13T16:08:04.343Z,10.30
2018-12-13T16:10:39.385Z,9.90
2018-12-13T16:13:12.617Z,10.27
2018-12-13T16:15:45.277Z,10.53
2018-12-13T16:18:22.352Z,10.37
2018-12-13T16:20:58.087Z,10.90
2018-12-13T16:23:31.502Z,11.17
2018-12-13T16:26:06.296Z,11.63
2018-12-13T16:28:40.724Z,12.40
2018-12-13T16:31:15.045Z,11.80
2018-12-13T16:33:49.216Z,10.97
2018-12-13T16:36:22.373Z,12.40
2018-12-13T16:38:57.294Z,12.90
2018-12-13T16:41:32.573Z,12.67
2018-12-13T16:44:07.759Z,13.03
2018-12-13T16:46:41.547Z,11.53
2018-12-13T16:49:14.333Z,12.27
2018-12-13T16:51:47.393Z,11.90
2018-12-13T16:54:20.013Z,11.93
2018-12-13T16:56:53.652Z,12.43
2018-12-13T16:59:27.447Z,12.93
2018-12-13T17:02:02.329Z,13.37
2018-12-13T17:04:37.457Z,12.87
2018-12-13T17:07:11.919Z,12.80
2018-12-13T17:09:47.029Z,11.73
2018-12-13T17:12:24.206Z,13.07
2018-12-13T17:14:58.288Z,12.57
2018-12-13T17:17:31.165Z,13.90
2018-12-13T17:20:06.480Z,13.20
2018-12-13T17:22:47.414Z,14.00
2018-12-13T17:25:20.031Z,13.62
2018-12-13T17:27:56.577Z,12.90
2018-12-13T17:30:30.791Z,12.90
2018-12-13T17:36:15.687Z,12.87
2018-12-13T17:38:48.391Z,13.03
2018-12-13T17:41:21.079Z,12.83
2018-12-13T17:43:56.863Z,12.93
2018-12-13T17:46:31.114Z,13.17
2018-12-13T17:49:06.887Z,12.83
2018-12-13T17:51:42.872Z,12.50
2018-12-13T17:54:17.399Z,12.97
2018-12-13T17:56:51.777Z,13.27
2018-12-13T17:59:25.998Z,12.60
2018-12-13T18:02:02.152Z,12.17
2018-12-13T18:04:36.397Z,11.97
2018-12-13T18:07:13.931Z,12.10
2018-12-13T18:09:46.654Z,13.67
2018-12-13T18:12:19.258Z,13.87
2018-12-13T18:14:52.753Z,13.43
2018-12-13T18:17:26.378Z,14.10
2018-12-13T18:19:59.435Z,14.47
2018-12-13T18:22:34.307Z,14.95
2018-12-13T18:25:08.134Z,14.27
2018-12-13T18:27:48.790Z,14.63
2018-12-13T18:30:24.623Z,16.07
2018-12-13T18:33:03.383Z,15.70
2018-12-13T18:35:37.095Z,15.27
2018-12-13T18:38:14.187Z,14.53
2018-12-13T18:40:49.504Z,14.60
2018-12-13T18:43:23.294Z,13.87
2018-12-13T18:45:59.306Z,14.43
2018-12-13T18:48:33.704Z,13.73
2018-12-13T18:51:08.746Z,13.20
2018-12-13T18:53:42.844Z,14.03
2018-12-13T18:56:17.417Z,14.67
2018-12-13T18:58:55.380Z,13.07
2018-12-13T19:01:46.715Z,13.57
2018-12-13T19:04:30.842Z,13.93
2018-12-13T19:07:07.513Z,13.33
2018-12-13T19:09:53.359Z,13.70
2018-12-13T19:12:38.916Z,14.63
2018-12-13T19:15:33.781Z,12.67
2018-12-13T19:18:10.760Z,12.97
2018-12-13T19:20:49.375Z,13.53
2018-12-13T19:23:22.337Z,13.55
2018-12-13T19:25:58.148Z,12.73
2018-12-13T19:28:32.728Z,13.05
2018-12-13T19:31:08.718Z,13.37
2018-12-13T19:33:47.974Z,11.97
2018-12-13T19:36:21.803Z,13.75
2018-12-13T19:38:57.489Z,12.23
2018-12-13T19:41:49.004Z,12.20
2018-12-13T19:44:23.913Z,12.93
2018-12-13T19:46:58.670Z,13.53
2018-12-13T19:49:41.247Z,12.97
2018-12-13T19:52:14.070Z,12.73
2018-12-13T19:54:48.622Z,12.03
2018-12-13T19:57:23.834Z,11.20
2018-12-13T19:59:58.784Z,12.07
2018-12-13T20:02:33.801Z,12.53
2018-12-13T20:05:09.269Z,12.97
2018-12-13T20:07:42.959Z,12.50
2018-12-13T20:10:19.491Z,12.00
2018-12-13T20:12:52.919Z,12.37
2018-12-13T20:15:26.381Z,12.20
2018-12-13T20:18:02.994Z,11.43
2018-12-13T20:20:37.219Z,12.87
2018-12-13T20:23:10.529Z,11.90
2018-12-13T20:25:49.264Z,12.40
2018-12-13T20:28:22.999Z,11.27
2018-12-13T20:30:58.063Z,12.10
2018-12-13T20:33:32.871Z,13.02
2018-12-13T20:36:08.853Z,12.40
2018-12-13T20:38:42.886Z,13.17
2018-12-13T20:41:16.723Z,13.00
2018-12-13T20:43:52.934Z,12.60
2018-12-13T20:46:27.171Z,12.50
2018-12-13T20:49:05.345Z,13.03
2018-12-13T20:51:39.112Z,13.67
2018-12-13T20:54:12.053Z,13.82
2018-12-13T20:56:45.934Z,13.30
2018-12-13T20:59:20.319Z,14.03
2018-12-13T21:01:53.150Z,15.05
2018-12-13T21:04:27.831Z,13.80
2018-12-13T21:07:06.020Z,13.17
2018-12-13T21:09:39.099Z,14.07
2018-12-13T21:12:17.093Z,16.02
2018-12-13T21:14:52.656Z,14.93
2018-12-13T21:17:27.277Z,14.90
2018-12-13T21:20:01.270Z,14.13
2018-12-13T21:22:36.464Z,14.60
2018-12-13T21:25:10.746Z,14.03
2018-12-13T21:27:46.325Z,15.37
2018-12-13T21:30:19.413Z,14.30
2018-12-13T21:32:52.211Z,15.20
2018-12-13T21:35:27.361Z,14.10
2018-12-13T21:38:00.198Z,15.30
2018-12-13T21:40:35.250Z,14.43
2018-12-13T21:43:10.310Z,15.07
2018-12-13T21:45:44.031Z,15.52
2018-12-13T21:51:04.626Z,15.40
2018-12-13T21:53:42.453Z,14.17
2018-12-13T21:56:15.668Z,14.13
2018-12-13T21:58:48.872Z,13.43
2018-12-13T22:01:29.448Z,13.87
2018-12-13T22:04:03.746Z,14.47
2018-12-13T22:06:38.049Z,14.07
2018-12-13T22:09:14.163Z,16.10
2018-12-13T22:11:47.039Z,15.47
2018-12-13T22:14:21.171Z,15.50
2018-12-13T22:16:56.424Z,14.93
2018-12-13T22:19:30.144Z,14.97
2018-12-13T22:22:03.753Z,16.23
2018-12-13T22:24:37.057Z,14.67
2018-12-13T22:27:11.677Z,15.90
2018-12-13T22:29:46.001Z,15.83
2018-12-13T22:32:19.547Z,15.77
2018-12-13T22:34:52.390Z,16.05
2018-12-13T22:37:25.247Z,15.73
2018-12-13T22:39:58.813Z,15.95
2018-12-13T22:42:31.573Z,14.87
2018-12-13T22:45:13.282Z,15.70
2018-12-13T22:47:46.966Z,16.13
2018-12-13T22:50:19.821Z,15.77
2018-12-13T22:52:52.776Z,16.48
2018-12-13T22:55:25.485Z,17.63
2018-12-13T22:57:58.079Z,16.20
2018-12-13T23:00:31.301Z,15.00
2018-12-13T23:03:08.550Z,16.33
2018-12-13T23:05:41.376Z,16.50
2018-12-13T23:08:15.425Z,16.00
2018-12-13T23:10:48.313Z,16.13
2018-12-13T23:13:20.949Z,17.60
2018-12-13T23:15:54.810Z,17.00
2018-12-13T23:18:28.552Z,16.80
2018-12-13T23:21:01.358Z,18.43
2018-12-13T23:23:38.684Z,16.23
2018-12-13T23:26:12.875Z,17.43
2018-12-13T23:28:46.214Z,17.13
2018-12-13T23:31:21.404Z,17.33
2018-12-13T23:33:58.431Z,17.50
2018-12-13T23:36:31.210Z,18.67
2018-12-13T23:39:04.769Z,17.23
2018-12-13T23:41:39.403Z,17.40
2018-12-13T23:44:19.556Z,16.73
2018-12-13T23:46:54.021Z,17.00
2018-12-13T23:49:27.815Z,17.80
2018-12-13T23:52:00.411Z,17.92
2018-12-13T23:54:33.563Z,17.17
2018-12-13T23:57:07.025Z,18.23
2018-12-13T23:59:42.380Z,15.63
